createdAt,value
2023-05-16T00:00:19.104Z,6.30
2023-05-16T00:03:07.349Z,6.30
2023-05-16T00:05:36.196Z,7.00
2023-05-16T00:08:04.030Z,6.60
2023-05-16T00:10:31.918Z,6.40
2023-05-16T00:13:02.073Z,6.50
2023-05-16T00:15:30.223Z,6.50
2023-05-16T00:17:59.493Z,6.60
2023-05-16T00:20:28.764Z,6.20
2023-05-16T00:23:01.039Z,6.00
2023-05-16T00:25:29.039Z,6.40
2023-05-16T00:27:56.852Z,6.90
2023-05-16T00:30:24.926Z,5.90
2023-05-16T00:32:54.584Z,6.90
2023-05-16T00:35:22.495Z,6.80
2023-05-16T00:37:51.247Z,7.10
2023-05-16T00:40:19.280Z,6.60
2023-05-16T00:42:47.263Z,5.90
2023-05-16T00:45:15.023Z,7.30
2023-05-16T00:47:43.015Z,6.40
2023-05-16T00:50:11.169Z,6.20
2023-05-16T00:52:39.387Z,6.60
2023-05-16T00:55:07.574Z,6.70
2023-05-16T00:57:35.724Z,6.90
2023-05-16T01:00:05.550Z,6.50
2023-05-16T01:02:34.736Z,7.10
2023-05-16T01:05:03.634Z,6.20
2023-05-16T01:07:31.736Z,5.90
2023-05-16T01:10:00.134Z,7.40
2023-05-16T01:12:38.416Z,6.20
2023-05-16T01:15:12.637Z,6.20
2023-05-16T01:18:01.072Z,6.50
2023-05-16T01:20:33.853Z,6.40
2023-05-16T01:23:02.220Z,6.60
2023-05-16T01:25:46.612Z,6.70
2023-05-16T01:28:16.330Z,7.10
2023-05-16T01:30:44.940Z,6.60
2023-05-16T01:33:13.007Z,6.00
2023-05-16T01:35:45.362Z,6.50
2023-05-16T01:38:25.054Z,6.50
2023-05-16T01:41:00.222Z,6.90
2023-05-16T01:43:33.690Z,7.10
2023-05-16T01:46:11.868Z,7.10
2023-05-16T01:48:44.603Z,6.90
2023-05-16T01:51:13.139Z,7.90
2023-05-16T01:53:40.998Z,6.60
2023-05-16T01:56:11.045Z,6.90
2023-05-16T01:58:39.303Z,7.00
2023-05-16T02:01:12.615Z,6.30
2023-05-16T02:03:40.538Z,7.30
2023-05-16T02:06:08.498Z,6.40
2023-05-16T02:08:36.296Z,6.70
2023-05-16T02:11:04.151Z,6.40
2023-05-16T02:13:32.411Z,6.90
2023-05-16T02:16:00.175Z,7.00
2023-05-16T02:18:30.877Z,6.70
2023-05-16T02:20:58.678Z,6.50
2023-05-16T02:23:26.700Z,6.10
2023-05-16T02:25:55.583Z,6.00
2023-05-16T02:28:24.122Z,6.30
2023-05-16T02:31:01.456Z,6.00
2023-05-16T02:33:30.919Z,6.40
2023-05-16T02:35:58.792Z,5.70
2023-05-16T02:38:26.636Z,6.50
2023-05-16T02:40:54.461Z,5.90
2023-05-16T02:43:22.469Z,6.20
2023-05-16T02:45:50.570Z,6.80
2023-05-16T02:48:18.395Z,6.20
2023-05-16T02:50:46.326Z,6.50
2023-05-16T02:53:14.316Z,6.30
2023-05-16T02:55:42.094Z,7.00
2023-05-16T02:58:09.943Z,7.40
2023-05-16T03:00:38.103Z,13.10
2023-05-16T03:03:06.061Z,8.70
2023-05-16T03:05:33.981Z,6.70
2023-05-16T03:08:01.745Z,6.50
2023-05-16T03:10:29.542Z,6.00
2023-05-16T03:12:57.669Z,6.40
2023-05-16T03:15:28.220Z,6.20
2023-05-16T03:17:56.232Z,6.20
2023-05-16T03:20:24.167Z,6.00
2023-05-16T03:22:51.903Z,6.00
2023-05-16T03:25:19.919Z,6.20
2023-05-16T03:27:47.790Z,6.60
2023-05-16T03:30:16.375Z,6.70
2023-05-16T03:32:45.676Z,6.10
2023-05-16T03:35:13.438Z,6.50
2023-05-16T03:37:41.431Z,6.40
2023-05-16T03:40:09.453Z,5.90
2023-05-16T03:42:37.465Z,5.60
2023-05-16T03:45:06.836Z,6.10
2023-05-16T03:47:42.803Z,6.40
2023-05-16T03:50:11.083Z,6.30
2023-05-16T03:52:39.016Z,6.40
2023-05-16T03:55:07.311Z,7.00
2023-05-16T03:57:36.380Z,7.00
2023-05-16T04:00:07.129Z,7.00
2023-05-16T04:02:35.109Z,7.00
2023-05-16T04:05:03.351Z,6.60
2023-05-16T04:07:31.334Z,6.70
2023-05-16T04:09:59.182Z,6.70
2023-05-16T04:12:27.072Z,6.30
2023-05-16T04:14:54.859Z,7.10
2023-05-16T04:17:25.350Z,6.30
2023-05-16T04:19:53.298Z,6.50
2023-05-16T04:22:21.714Z,6.70
2023-05-16T04:24:49.722Z,7.30
2023-05-16T04:27:17.646Z,6.60
2023-05-16T04:29:45.605Z,6.40
2023-05-16T04:32:13.537Z,6.50
2023-05-16T04:34:41.665Z,6.10
2023-05-16T04:37:09.540Z,6.00
2023-05-16T04:39:37.953Z,5.70
2023-05-16T04:42:06.192Z,6.20
2023-05-16T04:44:34.628Z,6.10
2023-05-16T04:47:02.392Z,6.20
2023-05-16T04:49:30.255Z,6.30
2023-05-16T04:51:58.211Z,6.40
2023-05-16T04:54:26.538Z,6.70
2023-05-16T04:56:54.460Z,6.60
2023-05-16T04:59:22.460Z,6.70
2023-05-16T05:01:50.458Z,6.50
2023-05-16T05:04:22.681Z,6.20
2023-05-16T05:06:50.711Z,6.40
2023-05-16T05:09:22.010Z,6.10
2023-05-16T05:11:50.029Z,6.30
2023-05-16T05:14:23.901Z,6.10
2023-05-16T05:16:51.778Z,6.30
2023-05-16T05:19:19.662Z,5.90
2023-05-16T05:21:47.562Z,5.90
2023-05-16T05:24:15.387Z,5.50
2023-05-16T05:26:43.332Z,5.70
2023-05-16T05:29:11.108Z,6.10
2023-05-16T05:31:38.907Z,5.50
2023-05-16T05:34:15.596Z,6.10
2023-05-16T05:36:44.214Z,6.30
2023-05-16T05:39:12.045Z,6.00
2023-05-16T05:41:40.178Z,6.30
2023-05-16T05:44:07.892Z,5.90
2023-05-16T05:46:35.825Z,6.00
2023-05-16T05:49:04.018Z,6.30
2023-05-16T05:51:31.821Z,5.70
2023-05-16T05:53:59.605Z,5.90
2023-05-16T05:56:27.356Z,5.90
2023-05-16T05:58:55.146Z,5.80
2023-05-16T06:01:23.473Z,6.10
2023-05-16T06:03:51.846Z,6.00
2023-05-16T06:06:19.731Z,5.70
2023-05-16T06:08:47.425Z,6.00
2023-05-16T06:11:15.172Z,6.40
2023-05-16T06:13:42.921Z,6.60
2023-05-16T06:16:10.736Z,7.60
2023-05-16T06:18:38.601Z,6.30
2023-05-16T06:21:07.083Z,5.90
2023-05-16T06:23:35.892Z,5.60
2023-05-16T06:26:04.225Z,6.20
2023-05-16T06:28:49.084Z,5.70
2023-05-16T06:31:17.070Z,4.80
2023-05-16T06:33:44.944Z,5.40
2023-05-16T06:36:12.773Z,5.20
2023-05-16T06:38:42.854Z,5.10
2023-05-16T06:41:10.706Z,4.20
2023-05-16T06:43:38.670Z,5.50
2023-05-16T06:46:06.830Z,5.10
2023-05-16T06:48:34.647Z,5.00
2023-05-16T06:51:02.551Z,5.20
2023-05-16T06:53:30.632Z,5.00
2023-05-16T06:55:58.407Z,4.90
2023-05-16T06:58:26.566Z,4.90
2023-05-16T07:00:56.832Z,4.90
2023-05-16T07:03:24.907Z,5.00
2023-05-16T07:05:53.182Z,4.50
2023-05-16T07:08:21.132Z,4.40
2023-05-16T07:10:49.082Z,4.00
2023-05-16T07:13:16.863Z,4.30
2023-05-16T07:15:44.705Z,4.10
2023-05-16T07:18:12.551Z,4.60
2023-05-16T07:20:40.298Z,4.20
2023-05-16T07:23:08.153Z,4.60
2023-05-16T07:25:36.537Z,4.70
2023-05-16T07:28:04.286Z,4.80
2023-05-16T07:30:32.213Z,4.80
2023-05-16T07:33:00.069Z,4.40
2023-05-16T07:35:28.169Z,4.70
2023-05-16T07:37:56.229Z,4.70
2023-05-16T07:40:28.412Z,4.90
2023-05-16T07:42:56.340Z,5.10
2023-05-16T07:45:24.213Z,4.10
2023-05-16T07:47:52.153Z,4.50
2023-05-16T07:50:20.058Z,4.10
2023-05-16T07:52:47.882Z,4.50
2023-05-16T07:55:15.756Z,3.90
2023-05-16T07:57:44.095Z,4.00
2023-05-16T08:00:12.160Z,4.00
2023-05-16T08:02:40.300Z,4.00
2023-05-16T08:05:08.857Z,3.60
2023-05-16T08:07:36.698Z,3.30
2023-05-16T08:10:05.096Z,3.30
2023-05-16T08:12:33.036Z,3.40
2023-05-16T08:15:00.852Z,3.20
2023-05-16T08:17:29.081Z,3.70
2023-05-16T08:19:57.040Z,3.20
2023-05-16T08:22:29.241Z,2.70
2023-05-16T08:24:57.966Z,3.20
2023-05-16T08:27:26.119Z,2.90
2023-05-16T08:29:53.968Z,3.10
2023-05-16T08:32:22.414Z,3.10
2023-05-16T08:34:50.283Z,2.20
2023-05-16T08:37:18.189Z,2.50
2023-05-16T08:39:46.352Z,2.90
2023-05-16T08:42:14.257Z,2.90
2023-05-16T08:44:42.149Z,2.70
2023-05-16T08:47:14.958Z,3.00
2023-05-16T08:49:43.702Z,2.70
2023-05-16T08:52:12.208Z,2.80
2023-05-16T08:54:41.236Z,3.20
2023-05-16T08:57:09.161Z,3.10
2023-05-16T08:59:37.432Z,2.60
2023-05-16T09:02:05.524Z,3.00
2023-05-16T09:04:33.523Z,3.10
2023-05-16T09:07:01.603Z,2.90
2023-05-16T09:09:30.323Z,3.00
2023-05-16T09:11:58.143Z,2.90
2023-05-16T09:14:25.868Z,3.20
2023-05-16T09:17:12.192Z,2.70
2023-05-16T09:19:41.320Z,2.70
2023-05-16T09:22:09.937Z,3.40
2023-05-16T09:24:44.579Z,3.10
2023-05-16T09:27:13.926Z,3.30
2023-05-16T09:29:45.012Z,2.90
2023-05-16T09:32:14.472Z,3.00
2023-05-16T09:34:44.135Z,3.30
2023-05-16T09:37:12.726Z,2.80
2023-05-16T09:39:45.811Z,3.50
2023-05-16T09:42:17.809Z,3.30
2023-05-16T09:44:52.944Z,3.30
2023-05-16T09:47:21.378Z,2.70
2023-05-16T09:49:53.490Z,3.00
2023-05-16T09:52:21.611Z,3.20
2023-05-16T09:54:50.200Z,3.00
2023-05-16T09:57:19.566Z,3.20
2023-05-16T09:59:47.646Z,3.60
2023-05-16T10:02:16.019Z,3.60
2023-05-16T10:04:44.026Z,3.90
2023-05-16T10:07:13.943Z,4.00
2023-05-16T10:09:42.379Z,4.40
2023-05-16T10:12:13.199Z,4.90
2023-05-16T10:14:41.675Z,4.80
2023-05-16T10:17:10.569Z,4.80
2023-05-16T10:19:41.213Z,5.40
2023-05-16T10:22:09.867Z,6.90
2023-05-16T10:24:50.782Z,7.30
2023-05-16T10:27:19.441Z,7.70
2023-05-16T10:32:22.210Z,7.40
2023-05-16T10:34:50.081Z,7.40
2023-05-16T10:37:18.048Z,8.10
2023-05-16T10:39:46.246Z,8.00
2023-05-16T10:42:18.301Z,8.10
2023-05-16T10:44:54.673Z,7.80
2023-05-16T10:47:30.705Z,7.90
2023-05-16T10:49:58.591Z,7.70
2023-05-16T10:52:33.819Z,7.10
2023-05-16T10:55:03.044Z,7.40
2023-05-16T10:57:33.096Z,7.80
2023-05-16T11:00:02.102Z,6.90
2023-05-16T11:02:33.748Z,6.70
2023-05-16T11:05:02.919Z,7.10
2023-05-16T11:07:35.271Z,6.70
2023-05-16T11:10:04.359Z,6.10
2023-05-16T11:12:38.855Z,6.20
2023-05-16T11:15:27.228Z,6.40
2023-05-16T11:18:04.986Z,6.20
2023-05-16T11:20:39.889Z,6.40
2023-05-16T11:23:17.053Z,6.80
2023-05-16T11:25:45.884Z,6.50
2023-05-16T11:28:15.563Z,5.60
2023-05-16T11:30:44.703Z,5.40
2023-05-16T11:33:15.751Z,5.60
2023-05-16T11:35:44.123Z,5.60
2023-05-16T11:38:16.766Z,6.90
2023-05-16T11:40:45.000Z,6.80
2023-05-16T11:43:18.291Z,6.10
2023-05-16T11:45:47.060Z,6.50
2023-05-16T11:48:24.691Z,4.90
2023-05-16T11:51:00.893Z,5.30
2023-05-16T11:53:28.767Z,6.20
2023-05-16T11:55:57.111Z,7.10
2023-05-16T11:58:25.228Z,7.20
2023-05-16T12:00:53.541Z,7.70
2023-05-16T12:03:23.993Z,7.60
2023-05-16T12:05:55.063Z,7.50
2023-05-16T12:08:24.707Z,7.70
2023-05-16T12:10:53.289Z,8.10
2023-05-16T12:13:23.706Z,8.20
2023-05-16T12:15:52.969Z,8.30
2023-05-16T12:18:22.019Z,8.20
2023-05-16T12:20:52.564Z,7.80
2023-05-16T12:23:20.627Z,8.10
2023-05-16T12:25:49.499Z,8.20
2023-05-16T12:28:17.769Z,8.90
2023-05-16T12:30:47.921Z,8.80
2023-05-16T12:33:17.165Z,9.90
2023-05-16T12:35:45.764Z,9.20
2023-05-16T12:38:15.003Z,9.50
2023-05-16T12:40:43.723Z,9.70
2023-05-16T12:43:15.513Z,10.20
2023-05-16T12:45:49.429Z,9.40
2023-05-16T12:48:17.477Z,9.60
2023-05-16T12:50:48.924Z,10.10
2023-05-16T12:53:17.870Z,9.30
2023-05-16T12:55:46.117Z,9.00
2023-05-16T12:58:14.174Z,9.40
2023-05-16T13:00:42.102Z,9.20
2023-05-16T13:03:10.131Z,9.00
2023-05-16T13:05:38.124Z,9.10
2023-05-16T13:08:06.304Z,9.50
2023-05-16T13:10:34.075Z,7.90
2023-05-16T13:13:05.183Z,9.60
2023-05-16T13:15:33.445Z,9.30
2023-05-16T13:18:01.353Z,9.20
2023-05-16T13:20:29.310Z,9.00
2023-05-16T13:22:57.302Z,9.30
2023-05-16T13:25:25.208Z,8.60
2023-05-16T13:27:53.046Z,8.40
2023-05-16T13:30:21.186Z,10.40
2023-05-16T13:32:49.123Z,9.00
2023-05-16T13:35:17.283Z,9.80
2023-05-16T13:37:45.109Z,9.30
2023-05-16T13:40:13.200Z,9.30
2023-05-16T13:42:41.193Z,9.30
2023-05-16T13:45:09.853Z,9.20
2023-05-16T13:47:37.926Z,8.80
2023-05-16T13:50:09.353Z,8.20
2023-05-16T13:52:38.281Z,9.40
2023-05-16T13:55:06.697Z,8.80
2023-05-16T13:57:34.699Z,8.00
2023-05-16T14:00:30.946Z,8.60
2023-05-16T14:02:54.226Z,8.50
2023-05-16T14:05:22.376Z,9.10
2023-05-16T14:07:50.405Z,9.10
2023-05-16T14:10:18.231Z,8.30
2023-05-16T14:12:46.445Z,8.50
2023-05-16T14:15:14.223Z,8.90
2023-05-16T14:17:42.500Z,8.00
2023-05-16T14:20:10.773Z,8.60
2023-05-16T14:22:38.781Z,8.40
2023-05-16T14:25:07.194Z,7.80
2023-05-16T14:27:35.088Z,8.40
2023-05-16T14:30:03.002Z,9.10
2023-05-16T14:32:31.456Z,8.20
2023-05-16T14:34:59.424Z,8.50
2023-05-16T14:37:27.497Z,10.00
2023-05-16T14:39:55.354Z,9.80
2023-05-16T14:42:23.242Z,8.60
2023-05-16T14:44:51.672Z,10.30
2023-05-16T14:47:19.436Z,9.30
2023-05-16T14:49:47.624Z,9.70
2023-05-16T14:52:15.393Z,9.10
2023-05-16T14:54:43.227Z,9.30
2023-05-16T14:57:11.479Z,9.10
2023-05-16T14:59:42.054Z,9.50
2023-05-16T15:02:09.953Z,10.20
2023-05-16T15:04:38.013Z,9.70
2023-05-16T15:07:08.947Z,9.20
2023-05-16T15:09:36.939Z,8.50
2023-05-16T15:12:05.223Z,8.80
2023-05-16T15:14:32.987Z,8.80
2023-05-16T15:17:00.975Z,10.40
2023-05-16T15:19:29.073Z,9.50
2023-05-16T15:21:57.140Z,9.00
2023-05-16T15:24:24.928Z,9.20
2023-05-16T15:26:52.792Z,9.40
2023-05-16T15:29:21.329Z,9.90
2023-05-16T15:31:49.253Z,10.20
2023-05-16T15:34:17.082Z,9.50
2023-05-16T15:36:44.914Z,10.60
2023-05-16T15:39:12.969Z,10.10
2023-05-16T15:42:01.002Z,9.40
2023-05-16T15:44:28.644Z,9.80
2023-05-16T15:46:56.434Z,10.10
2023-05-16T15:49:24.225Z,10.40
2023-05-16T15:51:52.980Z,10.30
2023-05-16T15:54:20.919Z,10.30
2023-05-16T15:56:51.339Z,9.90
2023-05-16T15:59:19.491Z,9.80
2023-05-16T16:01:47.477Z,10.00
2023-05-16T16:04:15.681Z,9.90
2023-05-16T16:06:43.607Z,10.70
2023-05-16T16:09:11.643Z,9.80
2023-05-16T16:11:39.760Z,10.80
2023-05-16T16:14:08.688Z,9.80
2023-05-16T16:16:38.561Z,10.70
2023-05-16T16:19:07.010Z,10.50
2023-05-16T16:21:34.871Z,10.80
2023-05-16T16:24:02.801Z,10.80
2023-05-16T16:26:31.894Z,11.30
2023-05-16T16:29:00.221Z,10.70
2023-05-16T16:31:27.995Z,12.40
2023-05-16T16:33:56.132Z,12.60
2023-05-16T16:36:23.915Z,11.90
2023-05-16T16:38:51.779Z,11.50
2023-05-16T16:41:19.599Z,11.00
2023-05-16T16:43:47.514Z,11.80
2023-05-16T16:46:15.459Z,11.50
2023-05-16T16:48:43.407Z,11.60
2023-05-16T16:51:15.025Z,11.20
2023-05-16T16:53:42.992Z,12.40
2023-05-16T16:56:10.816Z,12.30
2023-05-16T16:58:38.602Z,12.80
2023-05-16T17:01:07.430Z,12.30
2023-05-16T17:03:35.544Z,11.30
2023-05-16T17:06:03.431Z,12.30
2023-05-16T17:08:31.463Z,12.50
2023-05-16T17:10:59.877Z,12.50
2023-05-16T17:13:33.728Z,13.50
2023-05-16T17:16:02.056Z,13.50
2023-05-16T17:18:31.216Z,13.20
2023-05-16T17:21:00.915Z,13.50
2023-05-16T17:23:28.839Z,13.60
2023-05-16T17:25:57.001Z,13.90
2023-05-16T17:28:25.936Z,12.20
2023-05-16T17:30:53.777Z,13.40
2023-05-16T17:33:21.659Z,13.50
2023-05-16T17:35:49.521Z,13.10
2023-05-16T17:38:17.777Z,12.20
2023-05-16T17:40:45.596Z,12.80
2023-05-16T17:43:13.338Z,11.60
2023-05-16T17:45:41.202Z,11.90
2023-05-16T17:48:09.302Z,12.20
2023-05-16T17:50:37.374Z,11.70
2023-05-16T17:53:05.180Z,11.60
2023-05-16T17:55:33.982Z,10.50
2023-05-16T17:58:02.291Z,10.50
2023-05-16T18:00:30.069Z,9.30
2023-05-16T18:02:58.209Z,11.20
2023-05-16T18:05:26.709Z,10.80
2023-05-16T18:07:54.959Z,8.90
2023-05-16T18:10:22.806Z,7.50
2023-05-16T18:12:50.659Z,7.10
2023-05-16T18:15:18.616Z,6.80
2023-05-16T18:17:46.538Z,7.70
2023-05-16T18:20:14.557Z,7.10
2023-05-16T18:22:42.808Z,6.90
2023-05-16T18:25:11.488Z,7.00
2023-05-16T18:27:39.479Z,6.80
2023-05-16T18:30:07.850Z,7.30
2023-05-16T18:32:36.682Z,7.30
2023-05-16T18:35:04.613Z,8.00
2023-05-16T18:37:32.790Z,7.10
2023-05-16T18:40:00.737Z,7.30
2023-05-16T18:42:28.896Z,7.50
2023-05-16T18:44:56.771Z,7.90
2023-05-16T18:47:24.621Z,7.90
2023-05-16T18:49:53.046Z,7.60
2023-05-16T18:52:20.825Z,7.30
2023-05-16T18:54:48.665Z,7.70
2023-05-16T18:57:16.916Z,7.90
2023-05-16T18:59:44.740Z,7.40
2023-05-16T19:02:12.660Z,8.60
2023-05-16T19:04:40.960Z,7.60
2023-05-16T19:07:09.477Z,7.40
2023-05-16T19:09:37.527Z,6.90
2023-05-16T19:12:05.584Z,8.00
2023-05-16T19:14:33.544Z,7.50
2023-05-16T19:17:01.312Z,8.60
2023-05-16T19:19:29.866Z,7.00
2023-05-16T19:21:58.206Z,7.80
2023-05-16T19:24:26.351Z,7.60
2023-05-16T19:26:54.165Z,7.40
2023-05-16T19:29:22.508Z,7.50
2023-05-16T19:31:50.368Z,8.00
2023-05-16T19:34:20.761Z,6.90
2023-05-16T19:36:48.795Z,7.60
2023-05-16T19:39:16.722Z,7.70
2023-05-16T19:41:45.722Z,7.80
2023-05-16T19:44:15.558Z,8.50
2023-05-16T19:46:43.297Z,9.00
2023-05-16T19:49:11.310Z,9.10
2023-05-16T19:51:41.803Z,8.20
2023-05-16T19:54:10.011Z,8.00
2023-05-16T19:56:37.906Z,7.30
2023-05-16T19:59:05.702Z,7.40
2023-05-16T20:01:33.445Z,8.20
2023-05-16T20:04:01.609Z,7.40
2023-05-16T20:06:29.617Z,7.50
2023-05-16T20:08:57.444Z,7.30
2023-05-16T20:11:26.519Z,8.30
2023-05-16T20:13:55.783Z,7.70
2023-05-16T20:16:23.571Z,7.30
2023-05-16T20:18:51.561Z,8.20
2023-05-16T20:21:19.468Z,7.40
2023-05-16T20:23:47.292Z,7.30
2023-05-16T20:26:15.369Z,7.70
2023-05-16T20:28:43.095Z,7.80
2023-05-16T20:31:10.890Z,8.00
2023-05-16T20:33:38.802Z,6.90
2023-05-16T20:36:06.779Z,8.00
2023-05-16T20:38:34.710Z,7.40
2023-05-16T20:41:04.661Z,7.50
2023-05-16T20:43:32.593Z,7.70
2023-05-16T20:46:00.308Z,7.60
2023-05-16T20:48:31.805Z,8.00
2023-05-16T20:51:01.470Z,8.10
2023-05-16T20:53:29.366Z,8.40
2023-05-16T20:55:57.311Z,8.80
2023-05-16T20:58:25.074Z,8.60
2023-05-16T21:00:52.859Z,8.40
2023-05-16T21:03:21.288Z,8.30
2023-05-16T21:05:49.219Z,8.50
2023-05-16T21:08:17.013Z,8.70
2023-05-16T21:10:44.802Z,8.60
2023-05-16T21:13:12.823Z,9.00
2023-05-16T21:15:40.629Z,9.60
2023-05-16T21:18:08.868Z,9.00
2023-05-16T21:20:36.744Z,9.50
2023-05-16T21:23:04.611Z,8.70
2023-05-16T21:25:32.381Z,8.70
2023-05-16T21:28:00.574Z,9.00
2023-05-16T21:30:28.345Z,8.00
2023-05-16T21:32:56.297Z,8.60
2023-05-16T21:35:24.250Z,8.50
2023-05-16T21:37:52.189Z,8.70
2023-05-16T21:40:24.883Z,8.90
2023-05-16T21:42:52.951Z,8.50
2023-05-16T21:45:21.284Z,8.80
2023-05-16T21:47:49.259Z,8.70
2023-05-16T21:50:18.313Z,8.90
2023-05-16T21:52:46.240Z,8.90
2023-05-16T21:55:14.118Z,9.10
2023-05-16T21:57:42.073Z,9.60
2023-05-16T22:00:10.235Z,10.10
2023-05-16T22:02:38.178Z,9.50
2023-05-16T22:05:09.502Z,9.10
2023-05-16T22:07:37.946Z,10.60
2023-05-16T22:10:07.520Z,9.00
2023-05-16T22:12:35.705Z,9.80
2023-05-16T22:15:03.911Z,9.70
2023-05-16T22:17:32.011Z,9.50
2023-05-16T22:20:02.132Z,9.20
2023-05-16T22:22:30.093Z,10.00
2023-05-16T22:24:57.872Z,10.60
2023-05-16T22:27:25.833Z,9.70
2023-05-16T22:29:53.647Z,10.40
2023-05-16T22:32:22.406Z,10.10
2023-05-16T22:34:50.362Z,10.90
2023-05-16T22:37:22.357Z,11.40
2023-05-16T22:39:51.675Z,10.80
2023-05-16T22:42:19.605Z,11.10
2023-05-16T22:44:47.476Z,10.80
2023-05-16T22:47:15.400Z,10.70
2023-05-16T22:49:43.521Z,11.00
2023-05-16T22:52:11.903Z,10.80
2023-05-16T22:54:43.121Z,10.90
2023-05-16T22:57:11.629Z,10.40
2023-05-16T22:59:39.767Z,10.10
2023-05-16T23:02:10.355Z,10.00
2023-05-16T23:04:38.423Z,10.00
2023-05-16T23:07:06.396Z,10.10
2023-05-16T23:09:34.350Z,10.40
2023-05-16T23:12:02.395Z,9.80
2023-05-16T23:14:30.551Z,10.90
2023-05-16T23:17:01.933Z,10.90
2023-05-16T23:19:31.299Z,11.70
2023-05-16T23:21:59.852Z,10.70
2023-05-16T23:24:27.710Z,10.60
2023-05-16T23:26:55.624Z,10.70
2023-05-16T23:29:23.592Z,9.60
2023-05-16T23:31:58.791Z,10.40
2023-05-16T23:34:26.775Z,9.00
2023-05-16T23:36:54.798Z,10.50
2023-05-16T23:39:25.389Z,10.10
2023-05-16T23:41:53.513Z,9.60
2023-05-16T23:44:21.466Z,9.20
2023-05-16T23:46:49.584Z,9.70
2023-05-16T23:49:17.387Z,9.70
2023-05-16T23:51:56.738Z,10.10
2023-05-16T23:54:25.571Z,10.30
2023-05-16T23:56:53.685Z,10.10
2023-05-16T23:59:21.711Z,9.40
